createdAt,value
2016-09-07T00:00:22.195Z,23.22
2016-09-07T00:00:55.381Z,23.22
2016-09-07T00:01:27.709Z,23.24
2016-09-07T00:02:00.046Z,23.18
2016-09-07T00:02:32.375Z,23.21
2016-09-07T00:03:04.679Z,23.21
2016-09-07T00:03:37.004Z,23.16
2016-09-07T00:04:09.327Z,23.15
2016-09-07T00:04:41.660Z,23.18
2016-09-07T00:05:13.990Z,23.15
2016-09-07T00:05:46.308Z,23.06
2016-09-07T00:06:18.616Z,23.09
2016-09-07T00:06:50.956Z,23.06
2016-09-07T00:07:23.283Z,23.03
2016-09-07T00:07:55.619Z,23.04
2016-09-07T00:08:27.942Z,23.04
2016-09-07T00:09:00.248Z,23.15
2016-09-07T00:09:32.571Z,23.16
2016-09-07T00:10:04.902Z,23.07
2016-09-07T00:10:37.222Z,23.07
2016-09-07T00:11:09.541Z,23.14
2016-09-07T00:11:41.870Z,23.1
2016-09-07T00:12:14.194Z,23.1
2016-09-07T00:12:46.534Z,23.16
2016-09-07T00:13:18.857Z,23.09
2016-09-07T00:13:51.188Z,23.07
2016-09-07T00:14:23.521Z,23.1
2016-09-07T00:14:55.865Z,23.14
2016-09-07T00:15:28.198Z,23.01
2016-09-07T00:16:00.507Z,23.09
2016-09-07T00:16:32.845Z,23.06
2016-09-07T00:17:05.157Z,23.07
2016-09-07T00:17:37.497Z,23.19
2016-09-07T00:18:09.827Z,23.07
2016-09-07T00:18:42.150Z,23.15
2016-09-07T00:19:14.464Z,23.06
2016-09-07T00:19:46.791Z,23.07
2016-09-07T00:20:19.116Z,23.12
2016-09-07T00:20:51.440Z,23.06
2016-09-07T00:21:23.772Z,23.06
2016-09-07T00:21:56.133Z,23.09
2016-09-07T00:22:28.467Z,23
2016-09-07T00:23:00.803Z,23.09
2016-09-07T00:23:33.131Z,23.14
2016-09-07T00:24:05.447Z,23.06
2016-09-07T00:24:37.771Z,23.07
2016-09-07T00:25:10.095Z,23.03
2016-09-07T00:25:42.428Z,23.06
2016-09-07T00:26:14.776Z,23.06
2016-09-07T00:26:47.103Z,23
2016-09-07T00:27:19.426Z,23.06
2016-09-07T00:27:51.758Z,23.04
2016-09-07T00:28:24.091Z,23.04
2016-09-07T00:28:56.416Z,23.01
2016-09-07T00:29:28.722Z,23
2016-09-07T00:30:01.052Z,23
2016-09-07T00:30:33.370Z,23
2016-09-07T00:31:05.701Z,22.99
2016-09-07T00:31:38.036Z,23
2016-09-07T00:32:10.357Z,23.01
2016-09-07T00:32:42.686Z,22.97
2016-09-07T00:33:15.019Z,23
2016-09-07T00:33:47.338Z,23
2016-09-07T00:34:19.653Z,23
2016-09-07T00:34:51.975Z,22.97
2016-09-07T00:35:24.306Z,22.97
2016-09-07T00:35:56.650Z,22.89
2016-09-07T00:36:28.981Z,22.89
2016-09-07T00:37:01.299Z,23.03
2016-09-07T00:37:33.619Z,22.91
2016-09-07T00:38:05.931Z,22.97
2016-09-07T00:38:38.268Z,22.89
2016-09-07T00:39:10.574Z,22.94
2016-09-07T00:39:42.908Z,22.91
2016-09-07T00:40:15.253Z,22.99
2016-09-07T00:40:47.583Z,22.97
2016-09-07T00:41:19.891Z,22.96
2016-09-07T00:41:52.213Z,22.94
2016-09-07T00:42:24.559Z,22.99
2016-09-07T00:42:56.887Z,22.91
2016-09-07T00:43:29.204Z,22.89
2016-09-07T00:44:01.521Z,22.88
2016-09-07T00:44:33.842Z,22.89
2016-09-07T00:45:06.160Z,22.92
2016-09-07T00:45:38.492Z,22.88
2016-09-07T00:46:10.819Z,22.91
2016-09-07T00:46:43.152Z,22.91
2016-09-07T00:47:15.475Z,22.92
2016-09-07T00:47:47.813Z,22.89
2016-09-07T00:48:20.141Z,22.85
2016-09-07T00:48:52.477Z,22.92
2016-09-07T00:49:24.808Z,22.89
2016-09-07T00:49:57.151Z,22.79
2016-09-07T00:50:29.475Z,22.88
2016-09-07T00:51:01.790Z,22.88
2016-09-07T00:51:34.112Z,22.84
2016-09-07T00:52:06.450Z,22.81
2016-09-07T00:52:38.779Z,22.88
2016-09-07T00:53:11.107Z,22.79
2016-09-07T00:53:43.432Z,22.85
2016-09-07T00:54:15.783Z,22.81
2016-09-07T00:54:48.103Z,22.81
2016-09-07T00:55:20.425Z,22.85
2016-09-07T00:55:52.765Z,22.88
2016-09-07T00:56:25.110Z,22.81
2016-09-07T00:56:57.438Z,22.85
2016-09-07T00:57:29.768Z,22.75
2016-09-07T00:58:02.094Z,22.79
2016-09-07T00:58:35.016Z,22.81
2016-09-07T00:59:07.341Z,22.81
2016-09-07T00:59:39.685Z,22.82
2016-09-07T01:00:12.025Z,22.78
2016-09-07T01:00:44.354Z,22.81
2016-09-07T01:01:16.681Z,22.79
2016-09-07T01:01:49.021Z,22.81
2016-09-07T01:02:21.345Z,22.84
2016-09-07T01:02:53.641Z,22.85
2016-09-07T01:03:25.960Z,22.79
2016-09-07T01:03:58.268Z,22.84
2016-09-07T01:04:30.602Z,22.82
2016-09-07T01:05:02.923Z,22.71
2016-09-07T01:05:35.250Z,22.79
2016-09-07T01:06:07.566Z,22.66
2016-09-07T01:06:39.886Z,22.84
2016-09-07T01:07:12.229Z,22.75
2016-09-07T01:07:44.565Z,22.71
2016-09-07T01:08:16.908Z,22.75
2016-09-07T01:08:49.219Z,22.71
2016-09-07T01:09:21.553Z,22.73
2016-09-07T01:09:53.881Z,22.69
2016-09-07T01:10:26.204Z,22.78
2016-09-07T01:10:58.527Z,22.75
2016-09-07T01:11:30.856Z,22.84
2016-09-07T01:12:03.176Z,22.71
2016-09-07T01:12:35.506Z,22.73
2016-09-07T01:13:07.825Z,22.76
2016-09-07T01:13:40.167Z,22.73
2016-09-07T01:14:12.478Z,22.73
2016-09-07T01:14:44.790Z,22.7
2016-09-07T01:15:17.114Z,22.75
2016-09-07T01:15:49.428Z,22.7
2016-09-07T01:16:21.745Z,22.71
2016-09-07T01:16:54.054Z,22.67
2016-09-07T01:17:26.365Z,22.67
2016-09-07T01:17:58.692Z,22.7
2016-09-07T01:18:31.025Z,22.75
2016-09-07T01:19:03.370Z,22.76
2016-09-07T01:19:35.701Z,22.67
2016-09-07T01:20:08.020Z,22.69
2016-09-07T01:20:40.352Z,22.55
2016-09-07T01:21:12.678Z,22.67
2016-09-07T01:21:44.987Z,22.69
2016-09-07T01:22:17.287Z,22.7
2016-09-07T01:22:49.609Z,22.69
2016-09-07T01:23:21.931Z,22.67
2016-09-07T01:23:54.274Z,22.69
2016-09-07T01:24:26.583Z,22.73
2016-09-07T01:24:58.913Z,22.6
2016-09-07T01:25:31.236Z,22.63
2016-09-07T01:26:03.559Z,22.71
2016-09-07T01:26:35.885Z,22.76
2016-09-07T01:27:08.186Z,22.66
2016-09-07T01:27:40.501Z,22.61
2016-09-07T01:28:12.836Z,22.63
2016-09-07T01:28:45.168Z,22.6
2016-09-07T01:29:17.518Z,22.55
2016-09-07T01:29:49.836Z,22.61
2016-09-07T01:30:22.165Z,22.6
2016-09-07T01:30:54.508Z,22.57
2016-09-07T01:31:26.837Z,22.6
2016-09-07T01:31:59.145Z,22.67
2016-09-07T01:32:31.456Z,22.67
2016-09-07T01:33:03.761Z,22.63
2016-09-07T01:33:36.074Z,22.63
2016-09-07T01:34:08.416Z,22.63
2016-09-07T01:34:40.741Z,22.61
2016-09-07T01:35:13.082Z,22.57
2016-09-07T01:35:45.401Z,22.59
2016-09-07T01:36:17.717Z,22.64
2016-09-07T01:36:50.061Z,22.6
2016-09-07T01:37:22.381Z,22.61
2016-09-07T01:37:54.709Z,22.63
2016-09-07T01:38:27.033Z,22.63
2016-09-07T01:38:59.355Z,22.66
2016-09-07T01:39:31.642Z,22.61
2016-09-07T01:40:03.962Z,22.61
2016-09-07T01:40:36.277Z,22.64
2016-09-07T01:41:08.589Z,22.66
2016-09-07T01:41:40.919Z,22.55
2016-09-07T01:42:13.247Z,22.6
2016-09-07T01:42:45.559Z,22.61
2016-09-07T01:43:17.895Z,22.59
2016-09-07T01:43:50.221Z,22.54
2016-09-07T01:44:22.530Z,22.54
2016-09-07T01:44:54.857Z,22.59
2016-09-07T01:45:27.201Z,22.59
2016-09-07T01:45:59.511Z,22.59
2016-09-07T01:46:31.816Z,22.61
2016-09-07T01:47:04.131Z,22.6
2016-09-07T01:47:36.463Z,22.55
2016-09-07T01:48:08.809Z,22.59
2016-09-07T01:48:41.125Z,22.61
2016-09-07T01:49:13.462Z,22.51
2016-09-07T01:49:45.789Z,22.48
2016-09-07T01:50:18.103Z,22.6
2016-09-07T01:50:50.421Z,22.61
2016-09-07T01:51:22.740Z,22.52
2016-09-07T01:51:55.077Z,22.55
2016-09-07T01:52:27.409Z,22.44
2016-09-07T01:52:59.738Z,22.49
2016-09-07T01:53:32.045Z,22.45
2016-09-07T01:54:04.377Z,22.59
2016-09-07T01:54:36.700Z,22.51
2016-09-07T01:55:08.988Z,22.55
2016-09-07T01:55:41.320Z,22.51
2016-09-07T01:56:13.674Z,22.54
2016-09-07T01:56:46.004Z,22.45
2016-09-07T01:57:18.322Z,22.46
2016-09-07T01:57:50.640Z,22.44
2016-09-07T01:58:22.974Z,22.45
2016-09-07T01:58:55.295Z,22.45
2016-09-07T01:59:27.626Z,22.49
2016-09-07T01:59:59.950Z,22.52
2016-09-07T02:00:32.287Z,22.51
2016-09-07T02:01:04.622Z,22.48
2016-09-07T02:01:36.959Z,22.48
2016-09-07T02:02:09.308Z,22.51
2016-09-07T02:02:41.628Z,22.52
2016-09-07T02:03:13.953Z,22.45
2016-09-07T02:03:46.271Z,22.55
2016-09-07T02:04:18.591Z,22.51
2016-09-07T02:04:50.922Z,22.45
2016-09-07T02:05:23.226Z,22.48
2016-09-07T02:05:55.551Z,22.48
2016-09-07T02:06:27.871Z,22.49
2016-09-07T02:07:00.208Z,22.52
2016-09-07T02:07:32.523Z,22.42
2016-09-07T02:08:04.840Z,22.48
2016-09-07T02:08:37.171Z,22.49
2016-09-07T02:09:09.486Z,22.45
2016-09-07T02:09:41.804Z,22.46
2016-09-07T02:10:14.119Z,22.44
2016-09-07T02:10:46.449Z,22.46
2016-09-07T02:11:18.772Z,22.42
2016-09-07T02:11:51.104Z,22.44
2016-09-07T02:12:23.442Z,22.48
2016-09-07T02:12:55.755Z,22.49
2016-09-07T02:13:28.081Z,22.41
2016-09-07T02:14:00.416Z,22.46
2016-09-07T02:14:32.736Z,22.46
2016-09-07T02:15:05.056Z,22.45
2016-09-07T02:15:37.396Z,22.42
2016-09-07T02:16:09.736Z,22.38
2016-09-07T02:16:42.067Z,22.44
2016-09-07T02:17:14.398Z,22.39
2016-09-07T02:17:46.732Z,22.39
2016-09-07T02:18:19.076Z,22.46
2016-09-07T02:18:51.403Z,22.49
2016-09-07T02:19:23.727Z,22.45
2016-09-07T02:19:56.044Z,22.45
2016-09-07T02:20:28.374Z,22.39
2016-09-07T02:21:00.694Z,22.44
2016-09-07T02:21:33.028Z,22.38
2016-09-07T02:22:05.357Z,22.46
2016-09-07T02:22:37.673Z,22.46
2016-09-07T02:23:09.977Z,22.42
2016-09-07T02:23:42.316Z,22.44
2016-09-07T02:24:14.635Z,22.42
2016-09-07T02:24:46.973Z,22.36
2016-09-07T02:25:19.301Z,22.34
2016-09-07T02:25:51.623Z,22.39
2016-09-07T02:26:23.957Z,22.38
2016-09-07T02:26:56.275Z,22.36
2016-09-07T02:27:28.607Z,22.38
2016-09-07T02:28:00.923Z,22.36
2016-09-07T02:28:33.251Z,22.45
2016-09-07T02:29:05.572Z,22.42
2016-09-07T02:29:37.898Z,22.42
2016-09-07T02:30:10.219Z,22.39
2016-09-07T02:30:42.540Z,22.29
2016-09-07T02:31:14.853Z,22.39
2016-09-07T02:31:47.169Z,22.39
2016-09-07T02:32:19.490Z,22.31
2016-09-07T02:32:51.799Z,22.38
2016-09-07T02:33:24.126Z,22.34
2016-09-07T02:33:56.435Z,22.41
2016-09-07T02:34:28.763Z,22.39
2016-09-07T02:35:01.084Z,22.44
2016-09-07T02:35:33.396Z,22.39
2016-09-07T02:36:05.702Z,22.38
2016-09-07T02:36:38.017Z,22.39
2016-09-07T02:37:10.348Z,22.36
2016-09-07T02:37:42.682Z,22.3
2016-09-07T02:38:15.007Z,22.3
2016-09-07T02:38:47.328Z,22.33
2016-09-07T02:39:19.646Z,22.38
2016-09-07T02:39:51.969Z,22.38
2016-09-07T02:40:24.307Z,22.33
2016-09-07T02:40:56.630Z,22.36
2016-09-07T02:41:28.953Z,22.33
2016-09-07T02:42:01.288Z,22.36
2016-09-07T02:42:33.608Z,22.36
2016-09-07T02:43:05.921Z,22.39
2016-09-07T02:43:38.260Z,22.38
2016-09-07T02:44:10.594Z,22.36
2016-09-07T02:44:42.908Z,22.33
2016-09-07T02:45:15.252Z,22.31
2016-09-07T02:45:47.571Z,22.36
2016-09-07T02:46:19.881Z,22.33
2016-09-07T02:46:52.958Z,22.31
2016-09-07T02:47:25.268Z,22.34
2016-09-07T02:47:57.617Z,22.26
2016-09-07T02:48:29.944Z,22.29
2016-09-07T02:49:02.256Z,22.26
2016-09-07T02:49:34.574Z,22.31
2016-09-07T02:50:06.903Z,22.26
2016-09-07T02:50:39.221Z,22.3
2016-09-07T02:51:11.537Z,22.3
2016-09-07T02:51:43.857Z,22.3
2016-09-07T02:52:16.195Z,22.31
2016-09-07T02:52:48.554Z,22.26
2016-09-07T02:53:20.877Z,22.22
2016-09-07T02:53:53.207Z,22.3
2016-09-07T02:54:25.555Z,22.31
2016-09-07T02:54:57.879Z,22.34
2016-09-07T02:55:30.206Z,22.24
2016-09-07T02:56:02.527Z,22.24
2016-09-07T02:56:34.850Z,22.27
2016-09-07T02:57:07.164Z,22.27
2016-09-07T02:57:39.480Z,22.26
2016-09-07T02:58:11.780Z,22.24
2016-09-07T02:58:44.093Z,22.34
2016-09-07T02:59:16.423Z,22.33
2016-09-07T02:59:48.745Z,22.31
2016-09-07T03:00:21.059Z,22.27
2016-09-07T03:00:53.370Z,22.29
2016-09-07T03:01:25.679Z,22.24
2016-09-07T03:01:58.020Z,22.26
2016-09-07T03:02:30.328Z,22.31
2016-09-07T03:03:02.638Z,22.33
2016-09-07T03:03:34.961Z,22.31
2016-09-07T03:04:07.286Z,22.27
2016-09-07T03:04:39.610Z,22.26
2016-09-07T03:05:11.930Z,22.27
2016-09-07T03:05:44.251Z,22.23
2016-09-07T03:06:16.568Z,22.27
2016-09-07T03:06:48.888Z,22.27
2016-09-07T03:07:21.204Z,22.27
2016-09-07T03:07:53.526Z,22.31
2016-09-07T03:08:25.840Z,22.16
2016-09-07T03:08:58.172Z,22.26
2016-09-07T03:09:30.500Z,22.38
2016-09-07T03:10:02.809Z,22.3
2016-09-07T03:10:35.114Z,22.16
2016-09-07T03:11:07.439Z,22.23
2016-09-07T03:11:39.777Z,22.2
2016-09-07T03:12:12.100Z,22.3
2016-09-07T03:12:44.417Z,22.23
2016-09-07T03:13:16.740Z,22.29
2016-09-07T03:13:49.063Z,22.29
2016-09-07T03:14:21.374Z,22.24
2016-09-07T03:14:53.711Z,22.27
2016-09-07T03:15:26.049Z,22.3
2016-09-07T03:15:58.379Z,22.31
2016-09-07T03:16:30.723Z,22.26
2016-09-07T03:17:03.037Z,22.29
2016-09-07T03:17:35.364Z,22.22
2016-09-07T03:18:07.687Z,22.29
2016-09-07T03:18:40.008Z,22.27
2016-09-07T03:19:12.329Z,22.27
2016-09-07T03:19:44.654Z,22.3
2016-09-07T03:20:16.982Z,22.24
2016-09-07T03:20:49.313Z,22.27
2016-09-07T03:21:21.635Z,22.27
2016-09-07T03:21:53.961Z,22.24
2016-09-07T03:22:26.286Z,22.24
2016-09-07T03:22:58.616Z,22.2
2016-09-07T03:23:30.926Z,22.26
2016-09-07T03:24:03.264Z,22.23
2016-09-07T03:24:35.597Z,22.24
2016-09-07T03:25:07.918Z,22.24
2016-09-07T03:25:40.246Z,22.22
2016-09-07T03:26:12.572Z,22.22
2016-09-07T03:26:44.915Z,22.23
2016-09-07T03:27:17.223Z,22.24
2016-09-07T03:27:49.548Z,22.27
2016-09-07T03:28:21.868Z,22.2
2016-09-07T03:28:54.189Z,22.23
2016-09-07T03:29:26.511Z,22.12
2016-09-07T03:29:58.825Z,22.24
2016-09-07T03:30:31.156Z,22.16
2016-09-07T03:31:03.477Z,22.24
2016-09-07T03:31:35.808Z,22.2
2016-09-07T03:32:08.126Z,22.24
2016-09-07T03:32:40.446Z,22.23
2016-09-07T03:33:12.779Z,22.18
2016-09-07T03:33:45.113Z,22.09
2016-09-07T03:34:17.449Z,22.09
2016-09-07T03:34:49.782Z,22.09
2016-09-07T03:35:22.095Z,22.22
2016-09-07T03:35:54.417Z,22.18
2016-09-07T03:36:26.759Z,22.14
2016-09-07T03:36:59.070Z,22.07
2016-09-07T03:37:31.396Z,22.15
2016-09-07T03:38:03.721Z,22.2
2016-09-07T03:38:36.045Z,22.14
2016-09-07T03:39:08.356Z,22.11
2016-09-07T03:39:40.666Z,22.24
2016-09-07T03:40:12.990Z,22.11
2016-09-07T03:40:45.326Z,22.15
2016-09-07T03:41:17.635Z,22.18
2016-09-07T03:41:49.965Z,22.11
2016-09-07T03:42:22.302Z,22.12
2016-09-07T03:42:54.644Z,22.09
2016-09-07T03:43:26.967Z,22.09
2016-09-07T03:43:59.281Z,22.11
2016-09-07T03:44:31.609Z,22.11
2016-09-07T03:45:03.937Z,22.2
2016-09-07T03:45:36.253Z,22.22
2016-09-07T03:46:08.553Z,22.05
2016-09-07T03:46:40.873Z,22.23
2016-09-07T03:47:13.200Z,22.08
2016-09-07T03:47:45.533Z,22.24
2016-09-07T03:48:17.871Z,22.22
2016-09-07T03:48:50.197Z,22.11
2016-09-07T03:49:22.508Z,22.2
2016-09-07T03:49:54.838Z,22.24
2016-09-07T03:50:27.186Z,22.11
2016-09-07T03:50:59.483Z,22.23
2016-09-07T03:51:31.792Z,22.2
2016-09-07T03:52:04.113Z,22.2
2016-09-07T03:52:36.432Z,22.24
2016-09-07T03:53:08.766Z,22.2
2016-09-07T03:53:41.090Z,22.15
2016-09-07T03:54:13.411Z,22.23
2016-09-07T03:54:45.741Z,22.12
2016-09-07T03:55:18.049Z,22.2
2016-09-07T03:55:50.370Z,22.16
2016-09-07T03:56:22.695Z,22.12
2016-09-07T03:56:55.025Z,22.14
2016-09-07T03:57:27.336Z,22.11
2016-09-07T03:57:59.646Z,22.08
2016-09-07T03:58:31.987Z,22.15
2016-09-07T03:59:04.296Z,22.14
2016-09-07T03:59:36.607Z,22.14
2016-09-07T04:00:08.927Z,22.08
2016-09-07T04:00:41.253Z,22.12
2016-09-07T04:01:13.573Z,22.12
2016-09-07T04:01:45.892Z,22.12
2016-09-07T04:02:18.206Z,22.11
2016-09-07T04:02:50.531Z,22.07
2016-09-07T04:03:22.864Z,22.11
2016-09-07T04:03:55.194Z,22.08
2016-09-07T04:04:27.525Z,22.09
2016-09-07T04:04:59.834Z,22.09
2016-09-07T04:05:32.166Z,22.11
2016-09-07T04:06:04.494Z,22.05
2016-09-07T04:06:36.812Z,22.09
2016-09-07T04:07:09.139Z,22.11
2016-09-07T04:07:41.465Z,22.15
2016-09-07T04:08:13.800Z,22.15
2016-09-07T04:08:46.127Z,22.11
2016-09-07T04:09:18.435Z,22.12
2016-09-07T04:09:50.758Z,22.11
2016-09-07T04:10:23.079Z,22.02
2016-09-07T04:10:55.414Z,22.11
2016-09-07T04:11:27.733Z,22.11
2016-09-07T04:12:00.061Z,22.11
2016-09-07T04:12:32.374Z,22.15
2016-09-07T04:13:04.707Z,22.08
2016-09-07T04:13:37.000Z,22.11
2016-09-07T04:14:09.329Z,22.12
2016-09-07T04:14:41.652Z,22.08
2016-09-07T04:15:13.969Z,22.09
2016-09-07T04:15:46.282Z,22.12
2016-09-07T04:16:18.609Z,22.08
2016-09-07T04:16:50.917Z,22.14
2016-09-07T04:17:23.248Z,22.11
2016-09-07T04:17:55.589Z,22.08
2016-09-07T04:18:27.901Z,22.08
2016-09-07T04:19:00.209Z,22.07
2016-09-07T04:19:32.519Z,22.12
2016-09-07T04:20:04.848Z,22.09
2016-09-07T04:20:37.175Z,22.11
2016-09-07T04:21:09.487Z,22.11
2016-09-07T04:21:41.795Z,22.11
2016-09-07T04:22:14.174Z,22.09
2016-09-07T04:22:46.502Z,22.08
2016-09-07T04:23:18.827Z,22.05
2016-09-07T04:23:51.162Z,22.11
2016-09-07T04:24:23.491Z,22.07
2016-09-07T04:24:55.804Z,22.04
2016-09-07T04:25:28.133Z,22.07
2016-09-07T04:26:00.466Z,22.08
2016-09-07T04:26:32.814Z,22.07
2016-09-07T04:27:05.170Z,22.05
2016-09-07T04:27:37.486Z,22.14
2016-09-07T04:28:09.799Z,21.99
2016-09-07T04:28:42.136Z,22.07
2016-09-07T04:29:14.444Z,22.04
2016-09-07T04:29:46.762Z,22.08
2016-09-07T04:30:19.118Z,22.07
2016-09-07T04:30:51.454Z,21.99
2016-09-07T04:31:23.783Z,22.05
2016-09-07T04:31:56.123Z,22.11
2016-09-07T04:32:28.458Z,22.05
2016-09-07T04:33:00.779Z,22.04
2016-09-07T04:33:33.104Z,21.99
2016-09-07T04:34:05.416Z,22.04
2016-09-07T04:34:37.731Z,22.05
2016-09-07T04:35:10.045Z,22.02
2016-09-07T04:35:42.347Z,21.96
2016-09-07T04:36:14.674Z,22.05
2016-09-07T04:36:46.995Z,22.04
2016-09-07T04:37:19.359Z,21.97
2016-09-07T04:37:51.681Z,22.07
2016-09-07T04:38:24.005Z,22.05
2016-09-07T04:38:56.320Z,21.96
2016-09-07T04:39:28.647Z,22.05
2016-09-07T04:40:00.959Z,21.99
2016-09-07T04:40:33.285Z,22
2016-09-07T04:41:05.634Z,21.99
2016-09-07T04:41:37.973Z,22.05
2016-09-07T04:42:10.293Z,22.02
2016-09-07T04:42:42.624Z,21.99
2016-09-07T04:43:14.946Z,21.97
2016-09-07T04:43:47.289Z,21.93
2016-09-07T04:44:20.529Z,21.97
2016-09-07T04:44:52.843Z,21.97
2016-09-07T04:45:25.165Z,21.96
2016-09-07T04:45:57.478Z,21.99
2016-09-07T04:46:29.802Z,21.96
2016-09-07T04:47:02.128Z,21.99
2016-09-07T04:47:34.454Z,21.94
2016-09-07T04:48:06.788Z,22
2016-09-07T04:48:39.112Z,21.9
2016-09-07T04:49:11.432Z,21.93
2016-09-07T04:49:43.751Z,21.9
2016-09-07T04:50:16.093Z,21.99
2016-09-07T04:50:48.396Z,22
2016-09-07T04:51:20.711Z,21.97
2016-09-07T04:51:53.048Z,22
2016-09-07T04:52:25.376Z,21.96
2016-09-07T04:52:57.689Z,21.97
2016-09-07T04:53:30.011Z,22.05
2016-09-07T04:54:02.335Z,21.99
2016-09-07T04:54:34.669Z,22
2016-09-07T04:55:06.965Z,22
2016-09-07T04:55:39.278Z,21.97
2016-09-07T04:56:11.608Z,21.94
2016-09-07T04:56:43.922Z,21.94
2016-09-07T04:57:16.266Z,21.92
2016-09-07T04:57:48.589Z,22.02
2016-09-07T04:58:20.908Z,21.96
2016-09-07T04:58:53.231Z,22.02
2016-09-07T04:59:25.550Z,21.94
2016-09-07T04:59:57.857Z,21.94
2016-09-07T05:00:30.197Z,21.94
2016-09-07T05:01:02.527Z,22.02
2016-09-07T05:01:34.861Z,21.97
2016-09-07T05:02:07.184Z,21.94
2016-09-07T05:02:39.520Z,21.97
2016-09-07T05:03:11.835Z,21.94
2016-09-07T05:03:44.155Z,21.92
2016-09-07T05:04:16.475Z,21.94
2016-09-07T05:04:48.783Z,21.96
2016-09-07T05:05:21.088Z,21.93
2016-09-07T05:05:53.416Z,21.94
2016-09-07T05:06:25.785Z,21.93
2016-09-07T05:06:58.106Z,21.99
2016-09-07T05:07:30.447Z,21.96
2016-09-07T05:08:02.789Z,21.99
2016-09-07T05:08:35.102Z,21.9
2016-09-07T05:09:07.400Z,21.9
2016-09-07T05:09:39.731Z,21.93
2016-09-07T05:10:12.049Z,21.94
2016-09-07T05:10:45.059Z,21.92
2016-09-07T05:11:17.381Z,22
2016-09-07T05:11:50.570Z,21.96
2016-09-07T05:12:22.879Z,21.89
2016-09-07T05:12:55.192Z,21.9
2016-09-07T05:13:27.512Z,21.96
2016-09-07T05:13:59.841Z,21.94
2016-09-07T05:14:32.168Z,21.94
2016-09-07T05:15:04.493Z,21.92
2016-09-07T05:15:36.818Z,21.92
2016-09-07T05:16:09.134Z,21.94
2016-09-07T05:16:41.467Z,21.92
2016-09-07T05:17:13.786Z,21.94
2016-09-07T05:17:46.106Z,21.93
2016-09-07T05:18:18.453Z,21.94
2016-09-07T05:18:50.781Z,21.94
2016-09-07T05:19:23.107Z,21.93
2016-09-07T05:19:55.401Z,21.92
2016-09-07T05:20:28.649Z,21.94
2016-09-07T05:21:00.974Z,21.92
2016-09-07T05:21:33.306Z,21.94
2016-09-07T05:22:05.631Z,21.94
2016-09-07T05:22:39.077Z,21.94
2016-09-07T05:23:12.074Z,21.94
2016-09-07T05:23:44.386Z,21.94
2016-09-07T05:24:16.715Z,21.97
2016-09-07T05:24:49.034Z,21.97
2016-09-07T05:25:21.366Z,21.92
2016-09-07T05:25:55.596Z,21.93
2016-09-07T05:26:27.909Z,21.89
2016-09-07T05:27:00.353Z,21.93
2016-09-07T05:27:33.728Z,21.94
2016-09-07T05:28:06.183Z,21.94
2016-09-07T05:28:38.590Z,21.92
2016-09-07T05:29:10.898Z,21.94
2016-09-07T05:29:43.435Z,21.96
2016-09-07T05:30:16.045Z,21.93
2016-09-07T05:30:48.356Z,21.93
2016-09-07T05:31:20.693Z,21.94
2016-09-07T05:31:53.294Z,21.93
2016-09-07T05:32:26.204Z,22
2016-09-07T05:32:58.962Z,21.99
2016-09-07T05:33:31.298Z,21.94
2016-09-07T05:34:03.621Z,21.94
2016-09-07T05:34:35.957Z,21.92
2016-09-07T05:35:09.209Z,21.96
2016-09-07T05:35:42.120Z,21.97
2016-09-07T05:36:14.490Z,21.89
2016-09-07T05:36:46.804Z,22.02
2016-09-07T05:37:19.129Z,21.9
2016-09-07T05:37:51.445Z,21.97
2016-09-07T05:38:23.779Z,22
2016-09-07T05:38:56.094Z,22.02
2016-09-07T05:39:28.412Z,21.96
2016-09-07T05:40:00.748Z,22.02
2016-09-07T05:40:33.179Z,21.96
2016-09-07T05:41:05.512Z,21.94
2016-09-07T05:41:38.652Z,21.99
2016-09-07T05:42:11.187Z,21.94
2016-09-07T05:42:43.507Z,21.99
2016-09-07T05:43:15.820Z,21.99
2016-09-07T05:43:48.139Z,21.94
2016-09-07T05:44:20.791Z,22
2016-09-07T05:44:54.688Z,21.97
2016-09-07T05:45:31.223Z,22
2016-09-07T05:46:05.658Z,21.97
2016-09-07T05:46:40.750Z,21.97
2016-09-07T05:47:13.335Z,21.97
2016-09-07T05:47:46.665Z,21.97
2016-09-07T05:48:21.954Z,21.96
2016-09-07T05:48:54.552Z,22.05
2016-09-07T05:49:27.100Z,21.99
2016-09-07T05:49:59.760Z,22.07
2016-09-07T05:50:32.427Z,21.97
2016-09-07T05:51:05.033Z,21.99
2016-09-07T05:51:37.510Z,21.99
2016-09-07T05:52:09.816Z,22.04
2016-09-07T05:52:42.137Z,22.04
2016-09-07T05:53:14.462Z,22.07
2016-09-07T05:53:46.845Z,21.99
2016-09-07T05:54:19.227Z,22.05
2016-09-07T05:54:51.540Z,22.07
2016-09-07T05:55:24.687Z,22.07
2016-09-07T05:55:56.992Z,22
2016-09-07T05:56:29.319Z,22.05
2016-09-07T05:57:01.656Z,22.07
2016-09-07T05:57:33.982Z,22.04
2016-09-07T05:58:06.745Z,22.11
2016-09-07T05:58:39.100Z,22.08
2016-09-07T05:59:11.425Z,22.12
2016-09-07T05:59:44.662Z,22.11
2016-09-07T06:00:17.051Z,22.11
2016-09-07T06:00:49.497Z,22.08
2016-09-07T06:01:21.809Z,22.12
2016-09-07T06:01:54.137Z,22.14
2016-09-07T06:02:27.129Z,22.08
2016-09-07T06:02:59.443Z,22.12
2016-09-07T06:03:31.776Z,22.11
2016-09-07T06:04:04.386Z,22.11
2016-09-07T06:04:36.698Z,22.09
2016-09-07T06:05:09.332Z,22.09
2016-09-07T06:05:41.636Z,22.12
2016-09-07T06:06:13.988Z,22.08
2016-09-07T06:06:46.315Z,22.15
2016-09-07T06:07:18.655Z,22.26
2016-09-07T06:07:51.014Z,22.14
2016-09-07T06:08:23.339Z,22.11
2016-09-07T06:08:55.683Z,22.12
2016-09-07T06:09:28.014Z,22.22
2016-09-07T06:10:00.353Z,22.08
2016-09-07T06:10:32.686Z,22.2
2016-09-07T06:11:04.995Z,22.15
2016-09-07T06:11:37.306Z,22.12
2016-09-07T06:12:09.638Z,22.26
2016-09-07T06:12:41.963Z,22.18
2016-09-07T06:13:14.294Z,22.14
2016-09-07T06:13:49.238Z,22.2
2016-09-07T06:14:21.561Z,22.11
2016-09-07T06:14:53.923Z,22.26
2016-09-07T06:15:27.089Z,22.29
2016-09-07T06:16:00.771Z,22.26
2016-09-07T06:16:34.003Z,22.29
2016-09-07T06:17:06.326Z,22.16
2016-09-07T06:17:38.654Z,22.22
2016-09-07T06:18:10.989Z,22.23
2016-09-07T06:18:46.987Z,22.27
2016-09-07T06:19:19.316Z,22.26
2016-09-07T06:19:51.663Z,22.26
2016-09-07T06:20:23.991Z,22.3
2016-09-07T06:20:56.309Z,22.23
2016-09-07T06:21:28.642Z,22.3
2016-09-07T06:22:00.966Z,22.34
2016-09-07T06:22:33.413Z,22.3
2016-09-07T06:23:05.743Z,22.39
2016-09-07T06:23:38.090Z,22.42
2016-09-07T06:24:10.415Z,22.34
2016-09-07T06:24:42.730Z,22.42
2016-09-07T06:25:15.061Z,22.38
2016-09-07T06:25:47.394Z,22.41
2016-09-07T06:26:19.706Z,22.44
2016-09-07T06:26:52.049Z,22.44
2016-09-07T06:27:24.375Z,22.46
2016-09-07T06:27:56.710Z,22.51
2016-09-07T06:28:29.057Z,22.49
2016-09-07T06:29:01.385Z,22.48
2016-09-07T06:29:33.696Z,22.45
2016-09-07T06:30:06.001Z,22.57
2016-09-07T06:30:38.339Z,22.55
2016-09-07T06:31:10.651Z,22.57
2016-09-07T06:31:42.968Z,22.6
2016-09-07T06:32:16.036Z,22.59
2016-09-07T06:32:48.350Z,22.64
2016-09-07T06:33:20.679Z,22.63
2016-09-07T06:33:53.003Z,22.71
2016-09-07T06:34:25.320Z,22.69
2016-09-07T06:34:57.651Z,22.7
2016-09-07T06:35:29.985Z,22.66
2016-09-07T06:36:02.303Z,22.73
2016-09-07T06:36:34.616Z,22.84
2016-09-07T06:37:07.009Z,22.85
2016-09-07T06:37:41.231Z,22.7
2016-09-07T06:38:14.435Z,22.82
2016-09-07T06:38:49.143Z,22.82
2016-09-07T06:40:41.612Z,22.84
2016-09-07T06:41:14.646Z,22.89
2016-09-07T06:41:47.673Z,22.89
2016-09-07T06:42:21.692Z,22.92
2016-09-07T06:42:55.360Z,22.96
2016-09-07T06:43:28.838Z,22.96
2016-09-07T06:44:02.218Z,22.91
2016-09-07T06:44:35.131Z,22.91
2016-09-07T06:45:08.182Z,23.01
2016-09-07T06:45:42.180Z,23.07
2016-09-07T06:46:17.193Z,23
2016-09-07T06:46:50.066Z,23.06
2016-09-07T06:47:22.560Z,23.03
2016-09-07T06:47:56.037Z,23.1
2016-09-07T06:48:28.886Z,23.07
2016-09-07T06:49:01.451Z,23.12
2016-09-07T06:49:34.692Z,23.12
2016-09-07T06:50:07.918Z,23.09
2016-09-07T06:50:40.333Z,23.1
2016-09-07T06:51:12.725Z,23.07
2016-09-07T06:51:45.087Z,23.12
2016-09-07T06:52:17.505Z,23.03
2016-09-07T06:52:51.065Z,23.18
2016-09-07T06:53:23.533Z,23.15
2016-09-07T06:53:56.049Z,23.19
2016-09-07T06:54:29.071Z,23.24
2016-09-07T06:55:01.999Z,23.24
2016-09-07T06:55:35.063Z,23.22
2016-09-07T06:56:08.682Z,23.34
2016-09-07T06:56:45.468Z,23.34
2016-09-07T06:57:19.678Z,23.34
2016-09-07T06:57:56.700Z,23.47
2016-09-07T06:58:33.427Z,23.41
2016-09-07T06:59:12.692Z,23.35
2016-09-07T06:59:56.197Z,23.4
2016-09-07T07:00:33.197Z,23.42
2016-09-07T07:01:15.692Z,23.52
2016-09-07T07:02:00.692Z,23.5